Bonita, CA (91908)

6:42 AM PDT on August 20, 2014 (GMT -0700)
Lower Surrey Drive | Change Station
CLOSE
Current Station
Personal Weather Station
Location: Bonita, CA
Elevation: 150 ft
Nearby Weather Stations

Elev 150 ft 32.65 °N, 117.04 °W | Updated 22 seconds ago

Overcast
Overcast
67.8 °F
Feels Like 67.8 °F
N
0.0
Wind Variable Wind from WNW
Gusts 0.0 mph

Today
High -- | Low -- °F
--% Chance of Precip.
Yesterday
High -- | Low -- °F
Precip. -- in
6:15 AM 7:27 PM
Waning Crescent, 21% visible
Pressure 29.89 in
Visibility 10.0 miles
Clouds Overcast 1700 ft
Dew Point 61 °F
Humidity 80%
Rainfall 0.00 in
Snow Depth Not available.
UV 0.0 out of 12
Pollen 5.00 out of 12
Ozone Good
PM2.5 Good
Flu Activity Not available.
METAR KSDM 201253Z AUTO 28003KT 10SM OVC017 19/16 A2990 RMK AO2 SLP121 T01890156 TSNO $

More Conditions Fewer Conditions

Pressure 29.89 in
Visibility 10.0 miles
Clouds Overcast 1700 ft
Dew Point 61 °F
Humidity 80%
Rainfall 0.00 in
Snow Depth Not available.
UV 0.0 out of 12
Pollen 5.00 out of 12
Ozone Good
PM2.5 Good
Flu Activity Not available.
METAR KSDM 201253Z AUTO 28003KT 10SM OVC017 19/16 A2990 RMK AO2 SLP121 T01890156 TSNO $

More Conditions Fewer Conditions

10-Day Weather Forecast

Almanac

Astronomy

Aug. 20, 2014 Rise Set
Actual Time 6:15 AM PDT 7:27 PM PDT
Civil Twilight 5:49 AM PDT 7:52 PM PDT
Nautical Twilight 5:18 AM PDT 8:23 PM PDT
Astronomical Twilight 4:47 AM PDT 8:54 PM PDT
Moon 2:04 AM PDT 4:10 PM PDT
Length of Visible Light 14h 03m
Length of Day
13h 12m
Tomorrow will be 1m 50s shorter.
Waning Crescent, 21% of the Moon is Illuminated
Today
Waning Crescent
Aug 25
New
Sep 2
First Quarter
Sep 8
Full
Sep 15
Last Quarter

Today's Extremes

State Highs State Lows

Community

WunderPhotos

Upload Photos

1,745,630 photos uploaded!

WunderBlogs® & News

By Dr. Jeff Masters
Director of Meteorology, Weather Underground
By Kari Strenfel
Meteorologist, Weather Underground
By Christopher C. Burt
Weather Historian, Weather Underground
August 20, 2014
August 20, 2014
August 20, 2014

Nearby

Air Quality

  Air Quality AQ Index Pollutant
Yesterday Good
PM2.5
Yesterday Good
OZONE
Current Good
PM2.5
Current Good
OZONE
Wednesday Good
PM2.5
Wednesday Good
OZONE

Snow Depth

Station Depth Elevation
Leavitt Lake 0 in 9400 ft
Leavitt Meadows 1 in 7200 ft
Sonora Pass 0 in 8800 ft
Summit Meadow 0 in 9122 ft
Ebbetts Pass 0 in 8700 ft

Earthquake Activity

City Distance Mag. Time & Date
Malibu Beach, California 132 miles 3.4 10:03 AM PDT
2014-08-15
Yucca Valley, California 118 miles 3.8 8:57 PM PDT
2014-08-14
Alberto Oviedo Mota, Mexico 115 miles 2.8 3:03 PM PDT
2014-08-14
Salton City, California 71 miles 2.6 6:58 AM PDT
2014-08-14
Minimum magnitude displayed is 2.5.

Coastal Water Temperatures

Place Temperature
La Jolla, CA 72.0 °F
San Diego, CA 72.0 °F

Nearby Weather Stations